Terminal Aerodrome Forecast
Issued by NWS Kansas City/Pleasant Hill, MO

Home | Current Version | Previous Version | Text Only | Print | Product List | Glossary On
Versions: 1 2 3 4 5 6 7 8 9 10 11 12 13 14 15 16 17 18 19 20 21 22
000
FTUS43 KEAX 210500
TAFMCI
TAF
KMCI 210520Z 2106/2206 18008KT 6SM BR SCT022 BKN150
     FM211000 18009KT 5SM BR BKN022
     FM211200 18010KT 2SM BR OVC012
     FM211600 19012KT 5SM BR OVC020=

USA.gov is the U.S. government's official web portal to all federal, state and local government web resources and services.